Time;durP1;ratioP1;P1;durP2;ratioP2;P2;SDS_P1;SDS_P2;PMS_P1;PMS_P2;Temp;Humidity;BMP_temperature;BMP_pressure;BME280_temperature;BME280_humidity;BME280_pressure;Samples;Min_cycle;Max_cycle;Signal;HPM_P1;HPM_P2
2023/08/07 00:01:55;;;;;;;;;;;24.70;58.30;;;;;;5093099;28;19930;-49
2023/08/07 00:04:22;;;;;;;;;;;24.70;58.40;;;;;;5093298;28;20283;-50
2023/08/07 00:06:49;;;;;;;;;;;24.70;58.40;;;;;;5093647;28;19969;-50
2023/08/07 00:09:16;;;;;;;;;;;24.70;58.30;;;;;;5093519;28;20304;-51
2023/08/07 00:11:43;;;;;;;;;;;24.70;58.40;;;;;;5093337;28;19969;-54
2023/08/07 00:14:10;;;;;;;;;;;24.70;58.40;;;;;;5080232;28;19971;-55
2023/08/07 00:16:37;;;;;;;;;;;24.70;58.40;;;;;;5073324;28;19971;-54
2023/08/07 00:19:04;;;;;;;;;;;24.70;58.40;;;;;;5073225;28;19975;-55
2023/08/07 00:21:31;;;;;;;;;;;24.70;58.40;;;;;;5072723;28;19933;-52
2023/08/07 00:23:58;;;;;;;;;;;24.70;58.40;;;;;;5073306;28;20295;-51
2023/08/07 00:26:25;;;;;;;;;;;24.70;58.40;;;;;;5073276;28;20436;-50
2023/08/07 00:28:52;;;;;;;;;;;24.70;58.40;;;;;;5073363;28;19959;-54
2023/08/07 00:31:19;;;;;;;;;;;24.70;58.40;;;;;;5071892;28;19925;-50
2023/08/07 00:33:46;;;;;;;;;;;24.70;58.40;;;;;;5073090;28;19952;-54
2023/08/07 00:36:13;;;;;;;;;;;24.70;58.40;;;;;;5073092;28;19924;-55
2023/08/07 00:38:40;;;;;;;;;;;24.70;58.40;;;;;;5073113;28;19924;-52
2023/08/07 00:41:07;;;;;;;;;;;24.70;58.40;;;;;;5072985;28;20450;-56
2023/08/07 00:43:34;;;;;;;;;;;24.70;58.40;;;;;;5087014;28;20018;-53
2023/08/07 00:46:01;;;;;;;;;;;24.70;58.40;;;;;;5091855;28;19973;-54
2023/08/07 00:48:29;;;;;;;;;;;24.70;58.40;;;;;;5093437;28;19924;-53
2023/08/07 00:50:56;;;;;;;;;;;24.70;58.40;;;;;;5093278;28;20011;-54
2023/08/07 00:53:23;;;;;;;;;;;24.70;58.30;;;;;;5093169;28;19924;-49
2023/08/07 00:55:50;;;;;;;;;;;24.70;58.30;;;;;;5096780;28;20436;-53
2023/08/07 00:58:17;;;;;;;;;;;24.70;58.30;;;;;;5097160;28;20041;-54
2023/08/07 01:00:44;;;;;;;;;;;24.70;58.30;;;;;;5096715;28;19924;-54
2023/08/07 01:03:12;;;;;;;;;;;24.70;58.20;;;;;;5097315;28;19935;-57
2023/08/07 01:05:39;;;;;;;;;;;24.70;58.30;;;;;;5096555;28;20423;-53
2023/08/07 01:08:06;;;;;;;;;;;24.70;58.20;;;;;;5096786;28;19973;-48
2023/08/07 01:10:48;;;;;;;;;;;24.70;58.20;;;;;;5096815;28;19963;-51
2023/08/07 01:13:19;;;;;;;;;;;24.70;58.20;;;;;;5079211;28;20373;-50
2023/08/07 01:15:48;;;;;;;;;;;24.70;58.20;;;;;;5076202;28;19932;-54
2023/08/07 01:18:15;;;;;;;;;;;24.70;58.20;;;;;;5076478;28;20168;-52
2023/08/07 01:20:42;;;;;;;;;;;24.70;58.20;;;;;;5076379;28;20441;-55
2023/08/07 01:23:09;;;;;;;;;;;24.70;58.20;;;;;;5076711;28;20031;-52
2023/08/07 01:25:38;;;;;;;;;;;24.70;58.20;;;;;;5075978;28;19982;-53
2023/08/07 01:28:17;;;;;;;;;;;24.70;58.20;;;;;;5076257;28;20324;-54
2023/08/07 01:30:46;;;;;;;;;;;24.70;58.20;;;;;;5076190;28;20019;-51
2023/08/07 01:33:25;;;;;;;;;;;24.70;58.20;;;;;;5075770;28;20305;-49
2023/08/07 01:35:53;;;;;;;;;;;24.70;58.20;;;;;;5075795;28;20427;-51
2023/08/07 01:38:21;;;;;;;;;;;24.70;58.20;;;;;;5075745;28;20389;-55
2023/08/07 01:40:48;;;;;;;;;;;24.70;58.30;;;;;;5078318;28;19933;-53
2023/08/07 01:43:16;;;;;;;;;;;24.70;58.30;;;;;;5096336;28;19978;-53
2023/08/07 01:45:43;;;;;;;;;;;24.70;58.30;;;;;;5096070;28;20407;-52
2023/08/07 01:48:10;;;;;;;;;;;24.70;58.20;;;;;;5095914;28;19963;-54
2023/08/07 01:50:38;;;;;;;;;;;24.70;58.20;;;;;;5095686;28;19924;-49
2023/08/07 01:53:05;;;;;;;;;;;24.70;58.30;;;;;;5095582;28;19924;-54
2023/08/07 01:55:32;;;;;;;;;;;24.70;58.20;;;;;;5095683;28;20027;-54
2023/08/07 01:57:59;;;;;;;;;;;24.70;58.30;;;;;;5094249;28;19970;-50
2023/08/07 02:00:26;;;;;;;;;;;24.70;58.30;;;;;;5095255;28;20440;-53
2023/08/07 02:02:52;;;;;;;;;;;24.70;58.30;;;;;;5095763;28;19963;-49
2023/08/07 02:05:20;;;;;;;;;;;24.70;58.30;;;;;;5094915;28;19928;-56
2023/08/07 02:07:47;;;;;;;;;;;24.70;58.30;;;;;;5095534;28;19967;-54
2023/08/07 02:10:13;;;;;;;;;;;24.70;58.30;;;;;;5095475;28;19967;-54
2023/08/07 02:12:40;;;;;;;;;;;24.70;58.30;;;;;;5095793;28;19924;-54
2023/08/07 02:15:07;;;;;;;;;;;24.70;58.30;;;;;;5094069;28;19931;-54
2023/08/07 02:17:35;;;;;;;;;;;24.60;58.20;;;;;;5095284;28;19968;-54
2023/08/07 02:20:02;;;;;;;;;;;24.70;58.30;;;;;;5095250;28;20273;-54
2023/08/07 02:22:29;;;;;;;;;;;24.70;58.30;;;;;;5094868;28;19924;-54
2023/08/07 02:24:56;;;;;;;;;;;24.60;58.30;;;;;;5095401;28;19924;-52
2023/08/07 02:27:26;;;;;;;;;;;24.70;58.30;;;;;;5085141;28;19925;-55
2023/08/07 02:29:53;;;;;;;;;;;24.60;58.30;;;;;;5074504;28;19963;-53
2023/08/07 02:32:20;;;;;;;;;;;24.60;58.20;;;;;;5074159;28;19978;-54
2023/08/07 02:34:47;;;;;;;;;;;24.60;58.20;;;;;;5075390;28;19928;-54
2023/08/07 02:37:15;;;;;;;;;;;24.60;58.20;;;;;;5077480;28;19925;-51
2023/08/07 02:39:42;;;;;;;;;;;24.70;58.20;;;;;;5075507;28;20019;-54
2023/08/07 02:42:09;;;;;;;;;;;24.70;58.20;;;;;;5074196;28;19924;-54
2023/08/07 02:44:36;;;;;;;;;;;24.70;58.20;;;;;;5074616;28;20377;-55
2023/08/07 02:47:03;;;;;;;;;;;24.70;58.10;;;;;;5075011;28;19925;-54
2023/08/07 02:49:30;;;;;;;;;;;24.70;58.10;;;;;;5074343;28;19925;-52
2023/08/07 02:51:57;;;;;;;;;;;24.70;58.10;;;;;;5074292;28;19936;-55
2023/08/07 02:54:24;;;;;;;;;;;24.70;58.10;;;;;;5074775;28;19951;-54
2023/08/07 02:56:51;;;;;;;;;;;24.70;58.10;;;;;;5085530;28;19924;-54
2023/08/07 02:59:18;;;;;;;;;;;24.70;58.00;;;;;;5094435;28;19974;-54
2023/08/07 03:01:45;;;;;;;;;;;24.70;58.00;;;;;;5094465;28;20453;-54
2023/08/07 03:04:12;;;;;;;;;;;24.70;58.00;;;;;;5094350;28;19932;-54
2023/08/07 03:06:39;;;;;;;;;;;24.70;58.00;;;;;;5094406;28;19963;-54
2023/08/07 03:09:06;;;;;;;;;;;24.70;58.00;;;;;;5094815;28;19966;-55
2023/08/07 03:11:32;;;;;;;;;;;24.70;58.00;;;;;;5094535;28;19968;-53
2023/08/07 03:13:59;;;;;;;;;;;24.70;58.00;;;;;;5093602;28;20358;-54
2023/08/07 03:16:26;;;;;;;;;;;24.70;58.10;;;;;;5093816;28;19964;-54
2023/08/07 03:18:53;;;;;;;;;;;24.70;58.10;;;;;;5094448;28;19931;-53
2023/08/07 03:21:20;;;;;;;;;;;24.70;58.10;;;;;;5094068;28;20356;-54
2023/08/07 03:23:47;;;;;;;;;;;24.70;58.20;;;;;;5094449;28;19928;-54
2023/08/07 03:26:14;;;;;;;;;;;24.70;58.20;;;;;;5092389;28;19953;-55
2023/08/07 03:28:46;;;;;;;;;;;24.60;58.10;;;;;;5079003;28;19925;-55
2023/08/07 03:31:14;;;;;;;;;;;24.60;58.10;;;;;;5094052;28;19931;-53
2023/08/07 03:33:42;;;;;;;;;;;24.70;58.20;;;;;;5093741;28;19966;-53
2023/08/07 03:36:09;;;;;;;;;;;24.60;58.10;;;;;;5094447;28;19928;-51
2023/08/07 03:38:36;;;;;;;;;;;24.60;58.20;;;;;;5093772;28;20304;-55
2023/08/07 03:41:03;;;;;;;;;;;24.60;58.10;;;;;;5093598;28;20434;-54
2023/08/07 03:43:30;;;;;;;;;;;24.60;58.10;;;;;;5094428;28;19974;-50
2023/08/07 03:45:57;;;;;;;;;;;24.60;58.20;;;;;;5094112;28;19981;-53
2023/08/07 03:48:28;;;;;;;;;;;24.60;58.10;;;;;;5094013;28;19928;-54
2023/08/07 03:51:03;;;;;;;;;;;24.60;58.10;;;;;;5094000;28;19924;-54
2023/08/07 03:53:30;;;;;;;;;;;24.70;58.20;;;;;;5093366;28;19924;-54
2023/08/07 03:55:57;;;;;;;;;;;24.60;58.10;;;;;;5092942;28;19960;-53
2023/08/07 03:58:23;;;;;;;;;;;24.60;58.10;;;;;;5093960;28;20022;-54
2023/08/07 04:00:51;;;;;;;;;;;24.60;58.10;;;;;;5093762;28;19924;-54
2023/08/07 04:03:19;;;;;;;;;;;24.60;58.10;;;;;;5093675;28;19978;-54
2023/08/07 04:05:46;;;;;;;;;;;24.60;58.10;;;;;;5090720;28;19925;-53
2023/08/07 04:08:13;;;;;;;;;;;24.60;58.00;;;;;;5084311;28;20377;-54
2023/08/07 04:10:40;;;;;;;;;;;24.70;58.00;;;;;;5079521;28;19928;-56
2023/08/07 04:13:07;;;;;;;;;;;24.60;58.00;;;;;;5079154;28;20417;-53
2023/08/07 04:15:34;;;;;;;;;;;24.70;58.00;;;;;;5083979;28;20002;-55
2023/08/07 04:18:01;;;;;;;;;;;24.70;58.00;;;;;;5081404;28;19978;-53
2023/08/07 04:20:28;;;;;;;;;;;24.70;58.00;;;;;;5080983;28;19931;-55
2023/08/07 04:22:55;;;;;;;;;;;24.70;57.90;;;;;;5090122;28;19931;-54
2023/08/07 04:25:22;;;;;;;;;;;24.70;57.90;;;;;;5092297;28;19969;-53
2023/08/07 04:27:49;;;;;;;;;;;24.70;57.80;;;;;;5093264;28;19924;-52
2023/08/07 04:30:16;;;;;;;;;;;24.70;57.70;;;;;;5095105;28;20011;-52
2023/08/07 04:32:43;;;;;;;;;;;24.70;57.70;;;;;;5088018;28;19955;-53
2023/08/07 04:35:10;;;;;;;;;;;24.70;57.60;;;;;;5080432;28;19928;-53
2023/08/07 04:37:37;;;;;;;;;;;24.70;57.60;;;;;;5081423;28;19967;-54
2023/08/07 04:40:04;;;;;;;;;;;24.70;57.70;;;;;;5087987;28;19963;-53
2023/08/07 04:42:32;;;;;;;;;;;24.60;57.70;;;;;;5077065;28;19928;-54
2023/08/07 04:44:59;;;;;;;;;;;24.50;57.90;;;;;;5075810;28;19924;-54
2023/08/07 04:47:27;;;;;;;;;;;24.30;57.50;;;;;;5076787;28;19924;-53
2023/08/07 04:49:54;;;;;;;;;;;24.10;56.10;;;;;;5076112;28;19928;-53
2023/08/07 04:52:21;;;;;;;;;;;23.80;54.90;;;;;;5074412;28;20023;-53
2023/08/07 04:54:52;;;;;;;;;;;23.50;52.80;;;;;;5078343;28;19925;-55
2023/08/07 04:57:19;;;;;;;;;;;23.30;51.40;;;;;;5082343;28;20614;-53
2023/08/07 04:59:46;;;;;;;;;;;22.90;50.70;;;;;;5074434;28;19978;-54
2023/08/07 05:02:13;;;;;;;;;;;22.70;50.10;;;;;;5080576;28;20292;-52
2023/08/07 05:04:40;;;;;;;;;;;22.40;49.60;;;;;;5085407;28;19939;-53
2023/08/07 05:07:07;;;;;;;;;;;22.20;49.50;;;;;;5085028;28;20434;-54
2023/08/07 05:09:34;;;;;;;;;;;21.80;50.10;;;;;;5080417;28;19924;-51
2023/08/07 05:12:01;;;;;;;;;;;21.60;49.40;;;;;;5075142;28;20401;-52
2023/08/07 05:14:31;;;;;;;;;;;21.30;51.50;;;;;;5075136;28;19968;-52
2023/08/07 05:16:59;;;;;;;;;;;21.10;50.20;;;;;;5075480;28;19960;-52
2023/08/07 05:19:26;;;;;;;;;;;20.90;52.90;;;;;;5084850;28;19966;-54
2023/08/07 05:21:53;;;;;;;;;;;20.70;51.00;;;;;;5082938;28;19928;-54
2023/08/07 05:24:21;;;;;;;;;;;20.50;51.60;;;;;;5084835;28;19932;-54
2023/08/07 05:26:48;;;;;;;;;;;20.40;52.00;;;;;;5080441;28;19928;-52
2023/08/07 05:29:16;;;;;;;;;;;20.20;51.80;;;;;;5078996;28;19936;-54
2023/08/07 05:31:42;;;;;;;;;;;20.10;51.50;;;;;;5081247;28;19929;-55
2023/08/07 05:34:09;;;;;;;;;;;20.00;52.10;;;;;;5081067;28;20028;-54
2023/08/07 05:36:37;;;;;;;;;;;19.80;53.10;;;;;;5072770;28;19932;-54
2023/08/07 05:39:04;;;;;;;;;;;19.70;52.60;;;;;;5074170;28;19929;-53
2023/08/07 05:41:32;;;;;;;;;;;19.60;52.70;;;;;;5079076;28;19928;-51
2023/08/07 05:43:59;;;;;;;;;;;19.60;53.30;;;;;;5078043;28;19939;-56
2023/08/07 05:46:26;;;;;;;;;;;19.50;54.30;;;;;;5082650;28;20328;-57
2023/08/07 05:48:53;;;;;;;;;;;19.50;53.60;;;;;;5081398;28;20285;-57
2023/08/07 05:51:27;;;;;;;;;;;19.40;53.90;;;;;;5076594;28;19932;-57
2023/08/07 05:53:54;;;;;;;;;;;19.30;54.20;;;;;;5075606;28;19932;-58
2023/08/07 05:56:22;;;;;;;;;;;19.30;53.70;;;;;;5077128;28;20297;-58
2023/08/07 05:58:49;;;;;;;;;;;19.20;53.40;;;;;;5081979;28;19981;-57
2023/08/07 06:01:17;;;;;;;;;;;19.20;54.90;;;;;;5075064;28;19981;-58
2023/08/07 06:03:46;;;;;;;;;;;19.10;54.10;;;;;;5072420;28;19924;-58
2023/08/07 06:06:13;;;;;;;;;;;19.10;53.70;;;;;;5076387;28;19929;-58
2023/08/07 06:08:40;;;;;;;;;;;19.10;54.10;;;;;;5071590;28;22372;-57
2023/08/07 06:11:08;;;;;;;;;;;19.00;54.80;;;;;;5071491;28;19928;-58
2023/08/07 06:13:35;;;;;;;;;;;19.00;54.50;;;;;;5073346;28;19928;-58
2023/08/07 06:16:03;;;;;;;;;;;19.00;53.70;;;;;;5074506;28;20440;-59
2023/08/07 06:18:30;;;;;;;;;;;19.00;54.30;;;;;;5077057;28;19935;-58
2023/08/07 06:20:57;;;;;;;;;;;19.00;53.60;;;;;;5075784;28;19978;-58
2023/08/07 06:23:24;;;;;;;;;;;19.00;53.00;;;;;;5074196;28;20451;-58
2023/08/07 06:25:51;;;;;;;;;;;18.90;53.30;;;;;;5071084;28;19969;-58
2023/08/07 06:28:25;;;;;;;;;;;18.90;53.50;;;;;;5079319;28;19932;-57
2023/08/07 06:30:52;;;;;;;;;;;18.90;53.20;;;;;;5074668;28;20028;-59
2023/08/07 06:33:19;;;;;;;;;;;18.80;54.40;;;;;;5071459;28;20014;-58
2023/08/07 06:35:46;;;;;;;;;;;18.80;55.30;;;;;;5075478;28;20026;-58
2023/08/07 06:38:14;;;;;;;;;;;18.70;54.80;;;;;;5071699;28;20046;-59
2023/08/07 06:40:41;;;;;;;;;;;18.70;56.50;;;;;;5070406;28;20019;-59
2023/08/07 06:43:08;;;;;;;;;;;18.70;57.70;;;;;;5076772;28;19969;-59
2023/08/07 06:45:34;;;;;;;;;;;18.60;55.20;;;;;;5080521;28;19978;-59
2023/08/07 06:48:02;;;;;;;;;;;18.60;55.10;;;;;;5075962;28;19924;-58
2023/08/07 06:50:29;;;;;;;;;;;18.60;54.80;;;;;;5071851;28;19929;-58
2023/08/07 06:52:56;;;;;;;;;;;18.60;54.90;;;;;;5078884;28;19968;-58
2023/08/07 06:55:23;;;;;;;;;;;18.60;54.10;;;;;;5073266;28;19933;-58
2023/08/07 06:57:50;;;;;;;;;;;18.60;55.50;;;;;;5073183;28;19989;-58
2023/08/07 07:00:17;;;;;;;;;;;18.60;57.70;;;;;;5070004;28;20007;-59
2023/08/07 07:02:44;;;;;;;;;;;18.60;57.90;;;;;;5083636;28;19928;-59
2023/08/07 07:05:11;;;;;;;;;;;18.50;57.20;;;;;;5080293;28;19927;-56
2023/08/07 07:07:38;;;;;;;;;;;18.40;57.80;;;;;;5072684;28;20009;-59
2023/08/07 07:10:05;;;;;;;;;;;18.40;58.10;;;;;;5075723;28;19928;-57
2023/08/07 07:12:32;;;;;;;;;;;18.40;58.30;;;;;;5078848;28;19932;-58
2023/08/07 07:15:01;;;;;;;;;;;18.40;58.60;;;;;;5076924;28;19928;-59
2023/08/07 07:17:29;;;;;;;;;;;18.50;59.00;;;;;;5070261;28;19931;-60
2023/08/07 07:19:56;;;;;;;;;;;18.40;58.50;;;;;;5069591;28;19971;-59
2023/08/07 07:22:23;;;;;;;;;;;18.40;58.60;;;;;;5071933;28;20023;-58
2023/08/07 07:24:50;;;;;;;;;;;18.40;59.30;;;;;;5071258;28;20341;-59
2023/08/07 07:27:18;;;;;;;;;;;18.40;58.50;;;;;;5070658;28;19932;-60
2023/08/07 07:29:49;;;;;;;;;;;18.40;58.00;;;;;;5076471;28;19932;-60
2023/08/07 07:32:16;;;;;;;;;;;18.40;58.20;;;;;;5075554;28;19989;-59
2023/08/07 07:34:43;;;;;;;;;;;18.40;58.00;;;;;;5076798;28;20428;-58
2023/08/07 07:37:10;;;;;;;;;;;18.40;57.90;;;;;;5076487;28;19927;-58
2023/08/07 07:39:38;;;;;;;;;;;18.30;58.80;;;;;;5080871;28;19939;-59
2023/08/07 07:42:05;;;;;;;;;;;18.30;59.60;;;;;;5072699;28;19942;-59
2023/08/07 07:44:33;;;;;;;;;;;18.30;58.80;;;;;;5070451;28;20328;-58
2023/08/07 07:47:00;;;;;;;;;;;18.30;58.90;;;;;;5073449;28;19932;-62
2023/08/07 07:49:27;;;;;;;;;;;18.40;59.30;;;;;;5074456;28;19960;-59
2023/08/07 07:51:54;;;;;;;;;;;18.40;58.60;;;;;;5072488;28;20027;-59
2023/08/07 07:54:21;;;;;;;;;;;18.40;58.10;;;;;;5073883;28;20386;-59
2023/08/07 07:56:48;;;;;;;;;;;18.50;58.60;;;;;;5085915;28;19924;-58
2023/08/07 07:59:16;;;;;;;;;;;18.50;58.00;;;;;;5080786;28;20381;-59
2023/08/07 08:01:43;;;;;;;;;;;18.50;57.80;;;;;;5081605;28;19925;-58
2023/08/07 08:04:10;;;;;;;;;;;18.50;57.50;;;;;;5078577;28;19924;-58
2023/08/07 08:06:39;;;;;;;;;;;18.50;58.00;;;;;;5078223;28;19924;-58
2023/08/07 08:09:09;;;;;;;;;;;18.60;57.60;;;;;;5085890;28;20014;-58
2023/08/07 08:11:36;;;;;;;;;;;18.60;57.70;;;;;;5079225;28;19932;-58
2023/08/07 08:14:11;;;;;;;;;;;18.70;57.60;;;;;;5088846;28;19932;-59
2023/08/07 08:16:38;;;;;;;;;;;18.70;57.90;;;;;;5083214;28;20331;-59
2023/08/07 08:19:08;;;;;;;;;;;18.70;57.10;;;;;;5078937;28;19924;-60
2023/08/07 08:21:35;;;;;;;;;;;18.70;57.80;;;;;;5082581;28;19964;-59
2023/08/07 08:24:02;;;;;;;;;;;18.70;58.10;;;;;;5075454;28;19978;-57
2023/08/07 08:26:29;;;;;;;;;;;18.80;58.20;;;;;;5080314;28;19959;-59
2023/08/07 08:28:56;;;;;;;;;;;18.80;58.20;;;;;;5078825;28;20352;-60
2023/08/07 08:31:24;;;;;;;;;;;18.80;58.00;;;;;;5079791;28;19932;-60
2023/08/07 08:33:51;;;;;;;;;;;18.90;58.40;;;;;;5079717;28;19928;-59
2023/08/07 08:36:18;;;;;;;;;;;18.90;58.10;;;;;;5080176;28;20007;-60
2023/08/07 08:38:47;;;;;;;;;;;19.00;58.20;;;;;;5078494;28;19936;-60
2023/08/07 08:41:16;;;;;;;;;;;19.00;58.00;;;;;;5082533;28;20335;-60
2023/08/07 08:43:45;;;;;;;;;;;19.00;57.90;;;;;;5080740;28;19931;-59
2023/08/07 08:46:14;;;;;;;;;;;19.10;58.10;;;;;;5074961;28;20427;-59
2023/08/07 08:48:44;;;;;;;;;;;19.10;57.40;;;;;;5094105;28;19947;-58
2023/08/07 08:51:12;;;;;;;;;;;19.20;57.60;;;;;;5082609;28;20266;-59
2023/08/07 08:53:40;;;;;;;;;;;19.20;57.80;;;;;;5083455;28;20443;-59
2023/08/07 08:56:07;;;;;;;;;;;19.20;58.00;;;;;;5076173;28;20281;-59
2023/08/07 08:58:34;;;;;;;;;;;19.20;57.30;;;;;;5073940;28;20395;-57
2023/08/07 09:01:02;;;;;;;;;;;19.30;57.30;;;;;;5077135;28;20373;-59
2023/08/07 09:03:29;;;;;;;;;;;19.30;57.20;;;;;;5078829;28;19925;-57
2023/08/07 09:05:57;;;;;;;;;;;19.30;57.10;;;;;;5078308;28;19929;-59
2023/08/07 09:08:26;;;;;;;;;;;19.30;57.20;;;;;;5078970;28;19924;-59
2023/08/07 09:10:53;;;;;;;;;;;19.30;57.30;;;;;;5077991;28;20474;-57
2023/08/07 09:13:23;;;;;;;;;;;19.40;57.20;;;;;;5079414;28;20460;-59
2023/08/07 09:15:51;;;;;;;;;;;19.40;56.40;;;;;;5080788;28;19932;-59
2023/08/07 09:18:20;;;;;;;;;;;19.50;56.50;;;;;;5083538;28;19966;-59
2023/08/07 09:20:48;;;;;;;;;;;19.50;56.40;;;;;;5081205;28;19970;-59
2023/08/07 09:23:16;;;;;;;;;;;19.60;56.20;;;;;;5079412;28;19924;-59
2023/08/07 09:25:44;;;;;;;;;;;19.60;56.40;;;;;;5075038;28;19928;-59
2023/08/07 09:28:11;;;;;;;;;;;19.70;56.10;;;;;;5074085;28;20343;-60
2023/08/07 09:30:38;;;;;;;;;;;19.70;56.00;;;;;;5075968;28;20381;-60
2023/08/07 09:33:06;;;;;;;;;;;19.70;56.30;;;;;;5079501;28;20395;-60
2023/08/07 09:35:34;;;;;;;;;;;19.70;56.10;;;;;;5076824;28;20026;-60
2023/08/07 09:38:01;;;;;;;;;;;19.70;56.00;;;;;;5076554;28;19928;-55
2023/08/07 09:40:29;;;;;;;;;;;19.70;55.20;;;;;;5075620;28;19925;-60
2023/08/07 09:42:56;;;;;;;;;;;19.70;56.00;;;;;;5081264;28;19931;-59
2023/08/07 09:45:24;;;;;;;;;;;19.70;56.20;;;;;;5077724;28;19924;-60
2023/08/07 09:47:59;;;;;;;;;;;19.60;56.50;;;;;;5076819;28;19956;-57
2023/08/07 09:50:26;;;;;;;;;;;19.60;56.40;;;;;;5080528;28;19934;-57
2023/08/07 09:52:54;;;;;;;;;;;19.60;56.90;;;;;;5074553;28;19932;-56
2023/08/07 09:55:22;;;;;;;;;;;19.60;56.50;;;;;;5076920;28;20003;-56
2023/08/07 09:57:49;;;;;;;;;;;19.50;56.30;;;;;;5078184;28;19924;-56
2023/08/07 10:00:19;;;;;;;;;;;19.50;56.00;;;;;;5077002;28;20031;-56
2023/08/07 10:02:47;;;;;;;;;;;19.50;55.20;;;;;;5073712;28;19933;-56
2023/08/07 10:05:15;;;;;;;;;;;19.60;55.60;;;;;;5077724;28;20024;-58
2023/08/07 10:07:42;;;;;;;;;;;19.50;55.40;;;;;;5075392;28;19925;-56
2023/08/07 10:10:10;;;;;;;;;;;19.60;55.00;;;;;;5082534;28;19924;-56
2023/08/07 10:12:38;;;;;;;;;;;19.60;54.80;;;;;;5076038;28;19925;-56
2023/08/07 10:15:06;;;;;;;;;;;19.50;54.20;;;;;;5094321;28;20010;-58
2023/08/07 10:17:33;;;;;;;;;;;19.50;54.60;;;;;;5078137;28;19997;-57
2023/08/07 10:20:01;;;;;;;;;;;19.50;54.30;;;;;;5079007;28;19928;-59
2023/08/07 10:22:29;;;;;;;;;;;19.40;54.50;;;;;;5074401;28;20297;-57
2023/08/07 10:24:57;;;;;;;;;;;19.40;53.60;;;;;;5077847;28;19986;-56
2023/08/07 10:27:25;;;;;;;;;;;19.30;54.40;;;;;;5079801;28;19974;-57
2023/08/07 10:29:53;;;;;;;;;;;19.30;54.50;;;;;;5077288;28;19954;-55
2023/08/07 10:32:21;;;;;;;;;;;19.30;53.90;;;;;;5081053;28;20426;-57
2023/08/07 10:34:52;;;;;;;;;;;19.30;53.90;;;;;;5077855;28;20387;-56
2023/08/07 10:37:39;;;;;;;;;;;19.20;54.60;;;;;;5072218;28;20355;-57
2023/08/07 10:40:11;;;;;;;;;;;19.30;54.30;;;;;;5074187;28;20357;-53
2023/08/07 10:42:57;;;;;;;;;;;19.30;54.10;;;;;;5077304;28;19924;-53
2023/08/07 10:45:26;;;;;;;;;;;19.30;54.30;;;;;;5074855;28;19947;-51
2023/08/07 10:47:58;;;;;;;;;;;19.30;54.10;;;;;;5067516;28;20014;-55
2023/08/07 10:50:29;;;;;;;;;;;19.40;53.60;;;;;;5080040;28;19951;-55
2023/08/07 10:53:00;;;;;;;;;;;19.40;53.40;;;;;;5074758;28;19932;-55
2023/08/07 10:55:30;;;;;;;;;;;19.40;53.60;;;;;;5078970;28;20308;-56
2023/08/07 10:57:57;;;;;;;;;;;19.40;53.50;;;;;;5077747;28;20327;-58
2023/08/07 11:00:28;;;;;;;;;;;19.30;53.80;;;;;;5075108;28;20029;-58
2023/08/07 11:02:57;;;;;;;;;;;19.30;54.20;;;;;;5097595;27;20352;-58
2023/08/07 11:05:25;;;;;;;;;;;19.30;54.70;;;;;;5074040;28;19939;-58
2023/08/07 11:07:53;;;;;;;;;;;19.20;53.60;;;;;;5076375;28;20419;-55
2023/08/07 11:10:20;;;;;;;;;;;19.20;53.10;;;;;;5079410;28;19942;-58
2023/08/07 11:12:48;;;;;;;;;;;19.20;53.10;;;;;;5073807;28;19934;-58
2023/08/07 11:15:16;;;;;;;;;;;19.30;53.70;;;;;;5076250;28;20014;-58
2023/08/07 11:17:46;;;;;;;;;;;19.30;52.40;;;;;;5071002;28;20216;-55
2023/08/07 11:20:13;;;;;;;;;;;19.30;52.20;;;;;;5085172;28;20450;-59
2023/08/07 11:22:40;;;;;;;;;;;19.20;52.90;;;;;;5074743;28;19924;-58
2023/08/07 11:25:10;;;;;;;;;;;19.20;52.80;;;;;;5079668;28;20356;-59
2023/08/07 11:27:37;;;;;;;;;;;19.20;52.30;;;;;;5074100;28;19951;-57
2023/08/07 11:30:05;;;;;;;;;;;19.20;52.00;;;;;;5072779;28;19938;-59
2023/08/07 11:32:32;;;;;;;;;;;19.20;52.50;;;;;;5075968;28;20014;-58
2023/08/07 11:34:59;;;;;;;;;;;19.20;52.60;;;;;;5078935;28;20328;-58
2023/08/07 11:37:27;;;;;;;;;;;19.20;52.30;;;;;;5077687;28;19932;-57
2023/08/07 11:39:59;;;;;;;;;;;19.20;52.30;;;;;;5080607;28;19935;-54
2023/08/07 11:42:27;;;;;;;;;;;19.20;51.90;;;;;;5083380;28;20007;-54
2023/08/07 11:44:54;;;;;;;;;;;19.10;51.80;;;;;;5077809;28;20035;-55
2023/08/07 11:47:21;;;;;;;;;;;19.10;51.60;;;;;;5077797;28;20327;-53
2023/08/07 11:49:48;;;;;;;;;;;19.10;52.00;;;;;;5081838;28;19924;-57
2023/08/07 11:52:16;;;;;;;;;;;19.20;51.80;;;;;;5074280;28;20455;-57
2023/08/07 11:54:46;;;;;;;;;;;19.20;52.10;;;;;;5070182;28;19963;-56
2023/08/07 11:57:17;;;;;;;;;;;19.10;51.90;;;;;;5071537;28;19967;-55
2023/08/07 11:59:47;;;;;;;;;;;19.10;51.90;;;;;;5070867;28;20027;-59
2023/08/07 12:02:14;;;;;;;;;;;19.20;52.20;;;;;;5074760;28;19931;-59
2023/08/07 12:04:41;;;;;;;;;;;19.10;52.50;;;;;;5078477;28;19978;-56
2023/08/07 12:07:10;;;;;;;;;;;19.10;52.40;;;;;;5081457;28;20019;-60
2023/08/07 12:09:38;;;;;;;;;;;19.10;52.50;;;;;;5069065;28;20677;-60
2023/08/07 12:12:05;;;;;;;;;;;19.20;52.60;;;;;;5069707;28;19964;-59
2023/08/07 12:14:32;;;;;;;;;;;19.10;52.80;;;;;;5078864;28;20018;-59
2023/08/07 12:17:03;;;;;;;;;;;19.20;53.10;;;;;;5083460;28;19970;-60
2023/08/07 12:19:38;;;;;;;;;;;19.20;53.10;;;;;;5084757;28;19960;-59
2023/08/07 12:22:09;;;;;;;;;;;19.20;53.10;;;;;;5075120;28;19935;-59
2023/08/07 12:24:37;;;;;;;;;;;19.20;52.60;;;;;;5074729;28;20415;-59
2023/08/07 12:27:04;;;;;;;;;;;19.20;52.70;;;;;;5078910;28;19948;-59
2023/08/07 12:29:32;;;;;;;;;;;19.10;52.80;;;;;;5077942;28;19931;-59
2023/08/07 12:32:00;;;;;;;;;;;19.20;52.60;;;;;;5071570;28;19975;-58
2023/08/07 12:34:28;;;;;;;;;;;19.10;52.60;;;;;;5072120;28;19946;-59
2023/08/07 12:36:58;;;;;;;;;;;19.20;52.60;;;;;;5072337;28;19935;-59
2023/08/07 12:39:25;;;;;;;;;;;19.20;52.70;;;;;;5074526;28;19924;-59
2023/08/07 12:42:12;;;;;;;;;;;19.10;52.60;;;;;;5075876;28;19934;-59
2023/08/07 12:44:43;;;;;;;;;;;19.20;52.60;;;;;;5080797;28;19924;-59
2023/08/07 12:47:10;;;;;;;;;;;19.20;52.60;;;;;;5074734;28;20360;-59
2023/08/07 12:49:37;;;;;;;;;;;19.20;52.80;;;;;;5081862;28;20015;-59
2023/08/07 12:52:04;;;;;;;;;;;19.20;52.80;;;;;;5082990;28;19986;-60
2023/08/07 12:54:31;;;;;;;;;;;19.20;52.80;;;;;;5081875;28;19960;-58
2023/08/07 12:56:59;;;;;;;;;;;19.20;52.70;;;;;;5078501;28;19986;-59
2023/08/07 12:59:26;;;;;;;;;;;19.30;52.70;;;;;;5077982;28;19924;-56
2023/08/07 13:01:53;;;;;;;;;;;19.30;52.70;;;;;;5074143;28;19924;-58
2023/08/07 13:04:20;;;;;;;;;;;19.40;52.80;;;;;;5076015;28;20545;-58
2023/08/07 13:06:49;;;;;;;;;;;19.40;52.80;;;;;;5073932;28;20415;-59
2023/08/07 13:09:16;;;;;;;;;;;19.40;52.70;;;;;;5074484;28;19924;-60
2023/08/07 13:11:43;;;;;;;;;;;19.40;52.90;;;;;;5078715;28;19924;-59
2023/08/07 13:14:10;;;;;;;;;;;19.40;53.00;;;;;;5074138;28;19929;-59
2023/08/07 13:16:37;;;;;;;;;;;19.50;53.10;;;;;;5076364;28;20017;-57
2023/08/07 13:19:04;;;;;;;;;;;19.50;53.20;;;;;;5072868;28;19933;-54
2023/08/07 13:21:31;;;;;;;;;;;19.40;53.20;;;;;;5081472;28;19967;-59
2023/08/07 13:23:58;;;;;;;;;;;19.40;53.20;;;;;;5078687;28;20427;-59
2023/08/07 13:26:26;;;;;;;;;;;19.40;53.70;;;;;;5084643;28;19935;-60
2023/08/07 13:28:53;;;;;;;;;;;19.50;53.40;;;;;;5078515;28;20335;-59
2023/08/07 13:31:20;;;;;;;;;;;19.50;53.50;;;;;;5075515;28;20027;-59
2023/08/07 13:33:47;;;;;;;;;;;19.40;53.50;;;;;;5066308;28;19932;-59
2023/08/07 13:36:14;;;;;;;;;;;19.40;53.60;;;;;;5065860;28;20034;-60
2023/08/07 13:38:42;;;;;;;;;;;19.40;53.50;;;;;;5075278;28;19925;-60
2023/08/07 13:41:12;;;;;;;;;;;19.40;53.50;;;;;;5082057;28;19932;-61
2023/08/07 13:43:39;;;;;;;;;;;19.50;53.50;;;;;;5074906;28;19932;-59
2023/08/07 13:46:06;;;;;;;;;;;19.50;53.70;;;;;;5063948;28;19928;-59
2023/08/07 13:48:33;;;;;;;;;;;19.50;53.70;;;;;;5069535;28;19932;-59
2023/08/07 13:51:04;;;;;;;;;;;19.50;53.50;;;;;;5066211;28;20019;-60
2023/08/07 13:53:31;;;;;;;;;;;19.50;53.50;;;;;;5067014;28;19935;-60
2023/08/07 13:55:58;;;;;;;;;;;19.50;53.60;;;;;;5075098;28;20387;-60
2023/08/07 13:58:25;;;;;;;;;;;19.50;53.70;;;;;;5076668;28;19963;-59
2023/08/07 14:00:52;;;;;;;;;;;19.50;53.60;;;;;;5059986;28;19942;-60
2023/08/07 14:03:20;;;;;;;;;;;19.60;53.70;;;;;;5067772;28;19933;-60
2023/08/07 14:05:48;;;;;;;;;;;19.60;60.10;;;;;;5082517;28;19954;-60
2023/08/07 14:08:15;;;;;;;;;;;19.80;66.10;;;;;;5077206;28;20040;-60
2023/08/07 14:10:42;;;;;;;;;;;20.10;69.00;;;;;;5076993;28;19993;-58
2023/08/07 14:13:09;;;;;;;;;;;20.40;69.90;;;;;;5074824;28;19959;-57
2023/08/07 14:15:37;;;;;;;;;;;20.70;70.60;;;;;;5078059;28;19950;-58
2023/08/07 14:18:04;;;;;;;;;;;21.00;71.10;;;;;;5078812;28;20035;-54
2023/08/07 14:20:31;;;;;;;;;;;21.30;70.80;;;;;;5076200;28;20030;-59